Time;durP1;ratioP1;P1;durP2;ratioP2;P2;SDS_P1;SDS_P2;PMS_P1;PMS_P2;Temp;Humidity;BMP_temperature;BMP_pressure;BME280_temperature;BME280_humidity;BME280_pressure;Samples;Min_cycle;Max_cycle;Signal;HPM_P1;HPM_P2
2022/12/17 13:06:12;;;;;;;71.17;36.13;;;1.20;99.90;0.30;101130;;;;604236;234;25086;-71
2022/12/17 13:08:40;;;;;;;67.20;33.37;;;1.30;99.90;0.30;101134;;;;603736;234;24011;-72
2022/12/17 13:11:28;;;;;;;60.60;31.70;;;1.30;99.90;0.30;101136;;;;603903;234;24004;-71
2022/12/17 13:13:56;;;;;;;63.37;35.03;;;1.30;99.90;0.20;101136;;;;603860;234;24047;-71
2022/12/17 13:16:43;;;;;;;53.40;30.50;;;1.20;99.90;0.20;101133;;;;603715;234;24005;-71
2022/12/17 13:19:21;;;;;;;60.60;32.60;;;1.20;99.90;0.10;101140;;;;613360;234;24000;-72
2022/12/17 13:21:53;;;;;;;53.53;29.40;;;1.10;99.90;0.10;101140;;;;601096;234;24001;-73
2022/12/17 13:24:24;;;;;;;53.37;30.57;;;1.10;99.90;0.00;101141;;;;602941;234;23993;-71
2022/12/17 13:26:51;;;;;;;51.13;28.63;;;1.00;99.90;0.00;101139;;;;603508;234;24081;-73
2022/12/17 13:29:32;;;;;;;49.60;28.33;;;1.00;99.90;0.00;101138;;;;602026;234;24016;-71
2022/12/17 13:32:09;;;;;;;50.97;25.73;;;1.00;99.90;-0.10;101150;;;;597224;234;34766;-71
2022/12/17 13:35:01;;;;;;;43.93;18.90;;;0.90;99.90;-0.10;101143;;;;602939;234;24010;-72
2022/12/17 13:37:29;;;;;;;40.87;18.77;;;0.90;99.90;-0.20;101148;;;;603587;234;24066;-72
2022/12/17 13:40:30;;;;;;;64.67;27.07;;;0.90;99.90;-0.20;101156;;;;603548;234;24013;-71
2022/12/17 13:42:55;;;;;;;86.97;40.83;;;0.90;99.90;-0.20;101159;;;;604704;234;24101;-72
2022/12/17 13:45:23;;;;;;;102.67;45.00;;;0.80;99.90;-0.30;101164;;;;603927;234;23996;-72
2022/12/17 13:47:57;;;;;;;117.03;51.63;;;0.80;99.90;-0.30;101177;;;;613328;234;24008;-72
2022/12/17 13:50:27;;;;;;;99.70;46.17;;;0.70;99.90;-0.40;101170;;;;604676;234;24006;-72
2022/12/17 13:52:55;;;;;;;94.50;39.57;;;0.70;99.90;-0.40;101168;;;;605210;233;24031;-71
2022/12/17 13:55:29;;;;;;;87.60;39.90;;;0.60;99.90;-0.50;101179;;;;606085;233;24028;-72
2022/12/17 13:57:57;;;;;;;66.60;32.77;;;0.60;99.90;-0.50;101171;;;;606173;233;24000;-72
2022/12/17 14:00:23;;;;;;;60.77;30.50;;;0.40;99.90;-0.60;101172;;;;605920;233;24083;-72
2022/12/17 14:02:54;;;;;;;64.63;32.43;;;0.40;99.90;-0.70;101179;;;;592679;239;24030;-71
2022/12/17 14:05:37;;;;;;;78.27;36.33;;;0.40;99.90;-0.80;101177;;;;581697;243;24133;-73
2022/12/17 14:08:01;;;;;;;68.77;35.20;;;0.30;99.90;-0.80;101176;;;;581584;243;24055;-71
2022/12/17 14:10:30;;;;;;;76.00;38.20;;;0.20;99.90;-0.80;101181;;;;590853;243;24056;-71
2022/12/17 14:13:10;;;;;;;64.67;33.00;;;0.20;99.90;-0.90;101180;;;;587671;243;24100;-71
2022/12/17 14:15:38;;;;;;;58.70;31.23;;;0.10;99.90;-0.90;101181;;;;580824;243;24101;-71
2022/12/17 14:18:06;;;;;;;60.77;29.00;;;0.10;99.90;-1.00;101187;;;;569768;248;24098;-76
2022/12/17 14:20:39;;;;;;;62.37;33.30;;;0.10;99.90;-1.00;101187;;;;565377;250;24116;-73
2022/12/17 14:23:07;;;;;;;79.17;38.90;;;0.10;99.90;-1.00;101186;;;;577421;245;24066;-73
2022/12/17 14:25:35;;;;;;;65.00;33.97;;;0.00;99.90;-1.10;101192;;;;576556;245;24070;-71
2022/12/17 14:28:28;;;;;;;62.37;32.03;;;0.00;99.90;-1.10;101194;;;;577248;245;24049;-74
2022/12/17 14:30:53;;;;;;;63.43;30.77;;;-0.10;99.90;-1.10;101200;;;;574942;245;24090;-72
2022/12/17 14:33:29;;;;;;;58.10;29.73;;;-0.10;99.90;-1.20;101210;;;;572697;245;24087;-72
2022/12/17 14:36:01;;;;;;;58.67;32.53;;;-0.20;99.90;-1.20;101209;;;;576664;245;24057;-74
2022/12/17 14:38:26;;;;;;;77.77;38.80;;;-0.20;99.90;-1.20;101216;;;;569922;248;24099;-73
2022/12/17 14:40:54;;;;;;;93.63;41.37;;;-0.20;99.90;-1.30;101215;;;;580476;243;24110;-72
2022/12/17 14:43:22;;;;;;;89.17;42.70;;;-0.20;99.90;-1.30;101217;;;;589403;243;24067;-73
2022/12/17 14:49:00;;;;;;;75.07;35.00;;;-0.30;99.90;-1.30;101219;;;;578866;243;24050;-71
2022/12/17 14:51:28;;;;;;;61.90;32.70;;;-0.30;99.90;-1.30;101223;;;;581381;243;24097;-77
2022/12/17 14:54:06;;;;;;;53.50;28.87;;;-0.30;99.90;-1.30;101222;;;;570561;248;24103;-72
2022/12/17 14:56:33;;;;;;;57.17;29.40;;;-0.30;99.90;-1.30;101227;;;;578686;243;24103;-73
2022/12/17 14:59:02;;;;;;;57.27;31.57;;;-0.30;99.90;-1.30;101229;;;;581604;243;24082;-70
2022/12/17 15:01:31;;;;;;;52.43;30.30;;;-0.30;99.90;-1.30;101231;;;;570467;248;24064;-71
2022/12/17 15:03:58;;;;;;;50.03;26.90;;;-0.30;99.90;-1.30;101240;;;;570861;246;24074;-78
2022/12/17 15:06:29;;;;;;;57.23;30.60;;;-0.30;99.90;-1.30;101255;;;;571644;248;24060;-75
2022/12/17 15:08:54;;;;;;;50.83;29.87;;;-0.30;99.90;-1.30;101246;;;;582603;243;24102;-76
2022/12/17 15:11:25;;;;;;;50.40;26.47;;;-0.20;99.90;-1.30;101247;;;;582576;243;24039;-78
2022/12/17 15:13:51;;;;;;;49.77;26.73;;;-0.20;99.90;-1.30;101257;;;;571799;248;24111;-84
2022/12/17 15:16:18;;;;;;;53.92;31.02;;;-0.20;99.90;-1.30;101251;;;;566628;248;35258;-75
2022/12/17 15:18:46;;;;;;;34.53;15.53;;;-0.30;99.90;-1.30;101258;;;;570068;248;24123;-79
2022/12/17 15:21:14;;;;;;;47.53;26.80;;;-0.30;99.90;-1.30;101255;;;;571479;248;24129;-81
2022/12/17 15:23:42;;;;;;;50.63;28.23;;;-0.30;99.90;-1.40;101255;;;;580155;248;24139;-79
2022/12/17 15:26:13;;;;;;;62.10;33.23;;;-0.30;99.90;-1.40;101260;;;;571099;248;24157;-72
2022/12/17 15:28:38;;;;;;;53.20;27.73;;;-0.30;99.90;-1.40;101265;;;;566105;248;24073;-72
2022/12/17 15:31:05;;;;;;;58.17;32.40;;;-0.30;99.90;-1.40;101271;;;;563754;249;35363;-72
2022/12/17 15:33:34;;;;;;;41.03;17.70;;;-0.40;99.90;-1.40;101267;;;;570558;248;24073;-80
2022/12/17 15:36:05;;;;;;;45.73;23.73;;;-0.40;99.90;-1.50;101267;;;;570037;248;24073;-72
2022/12/17 15:38:30;;;;;;;48.77;27.33;;;-0.40;99.90;-1.50;101264;;;;569946;248;24158;-71
2022/12/17 15:43:09;;;;;;;68.17;32.33;;;-0.40;99.90;-1.50;101268;;;;569600;248;24082;-72
2022/12/17 15:43:29;;;;;;;55.53;28.43;;;-0.40;99.90;-1.40;101264;;;;577700;248;24070;-72
2022/12/17 15:45:57;;;;;;;58.10;29.70;;;-0.40;99.90;-1.50;101266;;;;567079;249;24148;-72
2022/12/17 15:48:25;;;;;;;55.80;30.50;;;-0.40;99.90;-1.50;101263;;;;580102;243;24167;-70
2022/12/17 15:50:53;;;;;;;50.17;28.10;;;-0.40;99.90;-1.50;101267;;;;580468;243;24067;-71
2022/12/17 15:53:20;;;;;;;52.87;27.77;;;-0.40;99.90;-1.50;101271;;;;579935;243;24057;-72
2022/12/17 15:55:48;;;;;;;51.80;28.43;;;-0.50;99.90;-1.50;101273;;;;569263;248;24079;-70
2022/12/17 15:58:19;;;;;;;53.03;28.13;;;-0.50;99.90;-1.60;101272;;;;569091;248;24099;-70
2022/12/17 16:00:44;;;;;;;50.93;26.93;;;-0.50;99.90;-1.60;101278;;;;567913;249;24105;-70
2022/12/17 16:03:12;;;;;;;46.23;25.60;;;-0.50;99.90;-1.60;101280;;;;569168;248;24080;-70
2022/12/17 16:05:41;;;;;;;55.73;29.00;;;-0.60;99.90;-1.70;101277;;;;569009;248;24135;-71
2022/12/17 16:08:09;;;;;;;54.43;27.53;;;-0.70;99.90;-1.70;101280;;;;569241;248;24088;-70
2022/12/17 16:10:41;;;;;;;56.10;29.93;;;-0.70;99.90;-1.80;101281;;;;569411;248;24098;-72
2022/12/17 16:13:07;;;;;;;61.27;33.47;;;-0.80;99.90;-1.80;101287;;;;567574;249;24093;-71
2022/12/17 16:15:36;;;;;;;62.60;31.63;;;-0.80;99.90;-1.90;101283;;;;567450;246;24082;-71
2022/12/17 16:18:03;;;;;;;63.70;32.63;;;-0.80;99.90;-1.90;101290;;;;582124;243;24099;-70
2022/12/17 16:20:31;;;;;;;48.53;27.93;;;-0.80;99.90;-1.90;101295;;;;590448;243;24065;-71
2022/12/17 16:23:00;;;;;;;42.03;24.00;;;-0.90;99.90;-2.00;101296;;;;570633;248;25135;-72
2022/12/17 16:25:29;;;;;;;47.03;25.37;;;-0.90;99.90;-2.00;101305;;;;570474;248;24092;-72
2022/12/17 16:27:57;;;;;;;65.17;32.97;;;-1.00;99.90;-2.10;101299;;;;569171;248;24082;-72
2022/12/17 16:30:25;;;;;;;67.87;33.53;;;-1.00;99.90;-2.20;101302;;;;570463;248;24103;-71
2022/12/17 16:32:53;;;;;;;62.70;31.43;;;-1.10;99.90;-2.30;101304;;;;570674;248;24095;-73
2022/12/17 16:35:22;;;;;;;48.33;26.93;;;-1.20;99.90;-2.30;101304;;;;570467;248;24092;-72
2022/12/17 16:37:55;;;;;;;47.90;26.30;;;-1.40;99.90;-2.40;101302;;;;570769;248;24100;-70
2022/12/17 16:40:23;;;;;;;57.87;29.73;;;-1.40;99.90;-2.50;101303;;;;581136;243;24120;-72
2022/12/17 16:42:51;;;;;;;85.77;37.97;;;-1.40;99.90;-2.50;101310;;;;581412;243;24052;-71
2022/12/17 16:45:18;;;;;;;75.77;38.13;;;-1.50;99.90;-2.60;101309;;;;570555;248;24096;-72
2022/12/17 16:47:46;;;;;;;108.43;46.17;;;-1.50;99.90;-2.70;101314;;;;570408;248;24110;-72
2022/12/17 16:50:15;;;;;;;75.67;37.17;;;-1.60;99.90;-2.70;101307;;;;584667;243;24085;-72
2022/12/17 16:52:45;;;;;;;79.13;37.50;;;-1.60;99.90;-2.80;101309;;;;570369;248;24110;-72
2022/12/17 16:55:10;;;;;;;97.23;43.43;;;-1.70;99.90;-2.80;101320;;;;580635;243;24073;-73
2022/12/17 16:57:38;;;;;;;89.83;42.60;;;-1.70;99.90;-2.90;101325;;;;580884;243;24092;-70
2022/12/17 17:00:09;;;;;;;98.77;44.63;;;-1.80;99.90;-3.00;101329;;;;569899;248;24184;-71
2022/12/17 17:02:34;;;;;;;73.60;36.97;;;-1.90;99.90;-3.00;101318;;;;569655;248;24110;-71
2022/12/17 17:05:02;;;;;;;54.37;28.00;;;-1.90;99.90;-3.10;101325;;;;568611;249;24083;-71
2022/12/17 17:07:30;;;;;;;51.33;26.50;;;-2.00;99.90;-3.20;101329;;;;569668;248;24090;-71
2022/12/17 17:09:58;;;;;;;49.50;27.27;;;-2.00;99.90;-3.20;101327;;;;569631;248;24094;-74
2022/12/17 17:12:26;;;;;;;49.77;28.20;;;-2.10;99.90;-3.20;101337;;;;583768;243;24067;-73
2022/12/17 17:14:54;;;;;;;57.20;31.53;;;-2.10;99.90;-3.30;101347;;;;576208;243;24069;-70
2022/12/17 17:17:22;;;;;;;72.93;35.83;;;-2.20;99.90;-3.30;101346;;;;568280;249;24082;-73
2022/12/17 17:19:50;;;;;;;77.30;36.10;;;-2.20;99.90;-3.40;101361;;;;580852;243;25092;-73
2022/12/17 17:22:18;;;;;;;75.23;37.60;;;-2.20;99.90;-3.40;101351;;;;580860;243;24104;-71
2022/12/17 17:24:49;;;;;;;55.90;29.20;;;-2.30;99.90;-3.40;101349;;;;569795;248;24091;-73
2022/12/17 17:27:13;;;;;;;48.10;27.67;;;-2.30;99.90;-3.50;101356;;;;568827;248;24090;-72
2022/12/17 17:29:45;;;;;;;54.03;30.40;;;-2.40;99.90;-3.60;101352;;;;570867;248;24089;-73
2022/12/17 17:32:10;;;;;;;48.73;28.47;;;-2.60;99.90;-3.70;101350;;;;570730;248;24114;-71
2022/12/17 17:34:42;;;;;;;58.63;30.60;;;-2.60;99.90;-3.70;101358;;;;570306;248;25136;-72
2022/12/17 17:37:07;;;;;;;63.43;34.57;;;-2.70;99.90;-3.80;101362;;;;568913;248;24173;-72
2022/12/17 17:39:35;;;;;;;66.90;34.53;;;-2.70;99.90;-3.80;101363;;;;589842;243;24072;-71
2022/12/17 17:42:02;;;;;;;64.90;35.73;;;-2.70;99.90;-3.90;101363;;;;580886;243;24056;-71
2022/12/17 17:44:30;;;;;;;54.30;31.77;;;-2.70;99.90;-3.90;101360;;;;568996;248;24065;-71
2022/12/17 17:46:59;;;;;;;56.90;32.47;;;-2.80;99.90;-3.90;101365;;;;580591;243;24083;-70
2022/12/17 17:49:27;;;;;;;55.20;31.67;;;-2.80;99.90;-3.90;101372;;;;580655;243;24049;-71
2022/12/17 17:51:55;;;;;;;58.40;34.27;;;-2.80;99.90;-4.00;101362;;;;569855;248;24086;-73
2022/12/17 17:54:27;;;;;;;63.90;36.43;;;-2.80;99.90;-4.00;101371;;;;569505;248;24081;-73
2022/12/17 17:56:54;;;;;;;88.03;44.03;;;-2.90;99.90;-4.00;101371;;;;579770;243;25142;-73
2022/12/17 17:59:23;;;;;;;63.00;36.17;;;-2.90;99.90;-4.00;101376;;;;580313;243;24108;-72
2022/12/17 18:01:48;;;;;;;54.83;31.37;;;-2.90;99.90;-4.00;101370;;;;569980;248;24186;-70
2022/12/17 18:04:16;;;;;;;47.90;29.10;;;-2.80;99.90;-3.90;101383;;;;580084;243;24042;-73
2022/12/17 18:06:44;;;;;;;49.33;30.00;;;-2.80;99.90;-3.90;101386;;;;580120;243;24065;-73
2022/12/17 18:09:12;;;;;;;54.33;32.13;;;-2.80;99.90;-3.90;101385;;;;578556;248;24097;-73
2022/12/17 18:11:41;;;;;;;59.13;34.20;;;-2.70;99.90;-3.80;101390;;;;580049;246;24097;-76
2022/12/17 18:14:12;;;;;;;69.50;38.13;;;-2.70;99.90;-3.80;101392;;;;570279;248;24212;-72
2022/12/17 18:16:40;;;;;;;53.67;28.40;;;-2.60;99.90;-3.70;101400;;;;580790;243;24083;-79
2022/12/17 18:19:16;;;;;;;51.97;26.83;;;-2.60;99.90;-3.70;101395;;;;580556;243;24063;-79
2022/12/17 18:21:44;;;;;;;51.27;27.53;;;-2.60;99.90;-3.70;101394;;;;579507;248;24083;-73
2022/12/17 18:24:15;;;;;;;50.13;27.63;;;-2.50;99.90;-3.60;101405;;;;573385;248;24172;-77
2022/12/17 18:26:45;;;;;;;55.53;31.07;;;-2.50;99.90;-3.60;101402;;;;580594;243;24077;-78
2022/12/17 18:29:12;;;;;;;58.03;30.70;;;-2.50;99.90;-3.60;101404;;;;580567;243;24104;-81
2022/12/17 18:31:43;;;;;;;55.33;29.70;;;-2.40;99.90;-3.50;101417;;;;580459;243;24052;-75
2022/12/17 18:34:08;;;;;;;70.70;32.63;;;-2.40;99.90;-3.50;101417;;;;576593;243;24107;-74
2022/12/17 18:36:39;;;;;;;91.50;38.87;;;-2.40;99.90;-3.50;101418;;;;590016;243;24073;-76
2022/12/17 18:39:19;;;;;;;71.47;33.70;;;-2.30;99.90;-3.40;101421;;;;581848;243;24091;-72
2022/12/17 18:44:34;;;;;;;51.47;28.07;;;-2.30;99.90;-3.30;101424;;;;579395;247;24126;-73
2022/12/17 18:47:00;;;;;;;61.33;32.07;;;-2.20;99.90;-3.30;101422;;;;580631;243;24092;-73
2022/12/17 18:49:29;;;;;;;61.93;32.23;;;-2.20;99.90;-3.30;101439;;;;580822;243;24165;-72
2022/12/17 18:51:57;;;;;;;77.07;36.90;;;-2.20;99.90;-3.20;101431;;;;580684;243;24052;-72
2022/12/17 18:54:25;;;;;;;68.10;36.83;;;-2.10;99.90;-3.20;101436;;;;581070;243;24108;-74
2022/12/17 18:56:56;;;;;;;71.03;37.23;;;-2.10;99.90;-3.20;101445;;;;581230;243;24044;-73
2022/12/17 18:59:21;;;;;;;71.47;36.03;;;-2.10;99.90;-3.20;101443;;;;580259;243;24092;-71
2022/12/17 19:01:53;;;;;;;67.23;34.93;;;-2.10;99.90;-3.20;101443;;;;570355;248;24123;-71
2022/12/17 19:04:17;;;;;;;67.78;36.50;;;-2.00;99.90;-3.20;101452;;;;575392;243;35168;-72
2022/12/17 19:06:48;;;;;;;66.07;35.03;;;-2.00;99.90;-3.10;101446;;;;580619;243;24055;-72
2022/12/17 19:09:15;;;;;;;79.10;39.67;;;-2.00;99.90;-3.10;101453;;;;570230;248;24122;-71
2022/12/17 19:11:44;;;;;;;57.60;31.73;;;-2.00;99.90;-3.10;101448;;;;570201;248;24139;-74
2022/12/17 19:14:16;;;;;;;56.13;31.50;;;-2.00;99.90;-3.10;101454;;;;572058;248;24186;-75
2022/12/17 19:16:41;;;;;;;54.23;31.90;;;-2.00;99.90;-3.10;101456;;;;580546;243;24088;-74
2022/12/17 19:19:15;;;;;;;51.80;30.77;;;-1.90;99.90;-3.10;101454;;;;580841;243;24090;-74
2022/12/17 19:21:43;;;;;;;59.37;34.73;;;-1.90;99.90;-3.00;101457;;;;570283;248;24135;-72
2022/12/17 19:24:11;;;;;;;73.10;37.20;;;-1.90;99.90;-3.00;101464;;;;579173;248;24309;-73
2022/12/17 19:26:36;;;;;;;60.73;32.73;;;-1.90;99.90;-3.00;101461;;;;583705;243;24075;-75
2022/12/17 19:29:04;;;;;;;65.87;33.73;;;-1.90;99.90;-3.10;101467;;;;570367;248;24078;-75
2022/12/17 19:31:32;;;;;;;60.80;33.10;;;-1.90;99.90;-3.10;101460;;;;581121;243;24053;-72
2022/12/17 19:34:06;;;;;;;62.33;35.20;;;-1.90;99.90;-3.10;101458;;;;587444;243;24073;-73
2022/12/17 19:36:32;;;;;;;53.87;32.20;;;-2.00;99.90;-3.10;101457;;;;579197;248;24115;-77
2022/12/17 19:38:59;;;;;;;58.97;33.33;;;-2.00;99.90;-3.10;101452;;;;570792;248;24090;-77
2022/12/17 19:41:31;;;;;;;65.50;37.57;;;-2.00;99.90;-3.10;101446;;;;570733;248;24099;-79
2022/12/17 19:43:55;;;;;;;61.20;35.60;;;-2.00;99.90;-3.20;101466;;;;570537;248;24088;-73
2022/12/17 19:46:23;;;;;;;66.67;36.27;;;-2.00;99.90;-3.20;101470;;;;581059;243;24057;-73
2022/12/17 19:48:51;;;;;;;62.17;33.10;;;-2.10;99.90;-3.30;101472;;;;590115;243;24067;-71
2022/12/17 19:51:19;;;;;;;64.18;37.75;;;-2.20;99.90;-3.30;101477;;;;564955;248;35315;-73
2022/12/17 19:53:49;;;;;;;60.17;32.47;;;-2.20;99.90;-3.40;101470;;;;571309;248;24146;-74
2022/12/17 19:56:19;;;;;;;59.90;34.53;;;-2.30;99.90;-3.40;101483;;;;580423;248;24088;-77
2022/12/17 19:58:51;;;;;;;70.93;40.23;;;-2.30;99.90;-3.50;101485;;;;591285;243;24073;-74
2022/12/17 20:01:16;;;;;;;69.30;38.57;;;-2.40;99.90;-3.50;101486;;;;570710;248;24096;-78
2022/12/17 20:03:47;;;;;;;60.93;35.37;;;-2.40;99.90;-3.60;101488;;;;570638;248;24112;-74
2022/12/17 20:06:16;;;;;;;61.03;34.30;;;-2.40;99.90;-3.60;101480;;;;571409;248;24069;-75
2022/12/17 20:08:49;;;;;;;61.53;36.63;;;-2.50;99.90;-3.60;101484;;;;581682;243;24110;-72
2022/12/17 20:11:32;;;;;;;67.73;40.73;;;-2.50;99.90;-3.60;101487;;;;579010;243;24067;-78
2022/12/17 20:14:19;;;;;;;81.23;42.13;;;-2.50;99.90;-3.60;101488;;;;570346;248;24105;-76
2022/12/17 20:16:48;;;;;;;60.97;35.07;;;-2.50;99.90;-3.60;101489;;;;570913;248;24085;-77
2022/12/17 20:19:16;;;;;;;64.73;35.83;;;-2.50;99.90;-3.60;101495;;;;591114;243;25099;-79
2022/12/17 20:21:44;;;;;;;59.67;34.67;;;-2.50;99.90;-3.60;101497;;;;580632;243;24084;-74
2022/12/17 20:24:18;;;;;;;59.33;34.00;;;-2.50;99.90;-3.70;101495;;;;590024;243;24094;-72
2022/12/17 20:26:46;;;;;;;66.20;33.40;;;-2.60;99.90;-3.70;101497;;;;580585;243;24070;-77
2022/12/17 20:29:15;;;;;;;66.70;38.00;;;-2.60;99.90;-3.80;101505;;;;580401;243;24076;-72
2022/12/17 20:31:46;;;;;;;71.90;39.63;;;-2.70;99.90;-3.90;101507;;;;569695;248;24087;-77
2022/12/17 20:34:11;;;;;;;68.93;39.73;;;-2.80;99.90;-3.90;101517;;;;569937;248;24102;-74
2022/12/17 20:36:43;;;;;;;76.23;39.57;;;-2.80;99.90;-4.00;101502;;;;566577;248;24105;-76
2022/12/17 20:39:14;;;;;;;68.47;40.63;;;-2.90;99.90;-4.10;101502;;;;570023;248;24085;-73
2022/12/17 20:41:42;;;;;;;66.83;39.20;;;-2.90;99.90;-4.10;101511;;;;566213;248;24177;-75
2022/12/17 20:44:07;;;;;;;70.00;40.67;;;-3.00;99.90;-4.20;101509;;;;569609;248;24114;-74
2022/12/17 20:46:39;;;;;;;79.90;46.37;;;-3.10;99.90;-4.30;101509;;;;570368;248;24112;-75
2022/12/17 20:49:03;;;;;;;72.77;43.07;;;-3.10;99.90;-4.30;101505;;;;570745;248;24106;-76
2022/12/17 20:51:31;;;;;;;71.50;40.87;;;-3.20;99.90;-4.40;101510;;;;581065;243;24070;-78
2022/12/17 20:54:01;;;;;;;65.47;38.40;;;-3.30;99.90;-4.50;101515;;;;581334;243;24123;-72
2022/12/17 20:56:31;;;;;;;65.70;39.43;;;-3.30;99.90;-4.60;101517;;;;569570;248;25135;-78
2022/12/17 20:59:03;;;;;;;69.17;38.80;;;-3.40;99.90;-4.60;101516;;;;581209;243;24123;-76
2022/12/17 21:01:33;;;;;;;66.60;39.37;;;-3.40;99.90;-4.60;101528;;;;580682;243;24118;-73
2022/12/17 21:03:59;;;;;;;64.77;38.57;;;-3.50;99.90;-4.70;101513;;;;572192;247;24094;-75
2022/12/17 21:06:34;;;;;;;62.43;38.57;;;-3.50;99.90;-4.70;101521;;;;571884;248;24100;-76
2022/12/17 21:09:03;;;;;;;68.13;40.40;;;-3.50;99.90;-4.70;101526;;;;580513;243;24154;-74
2022/12/17 21:11:30;;;;;;;64.57;36.83;;;-3.50;99.90;-4.70;101524;;;;578606;243;24079;-79
2022/12/17 21:13:59;;;;;;;66.57;40.43;;;-3.60;99.90;-4.80;101522;;;;571002;248;24106;-74
2022/12/17 21:16:26;;;;;;;68.37;38.33;;;-3.60;99.90;-4.80;101527;;;;569280;248;24239;-82
2022/12/17 21:18:54;;;;;;;65.27;39.40;;;-3.60;99.90;-4.90;101527;;;;590487;243;24096;-74
2022/12/17 21:21:22;;;;;;;67.67;39.03;;;-3.70;99.90;-5.00;101522;;;;580734;243;24088;-80
2022/12/17 21:23:54;;;;;;;64.83;39.17;;;-3.80;99.90;-5.00;101526;;;;581247;243;24072;-73
2022/12/17 21:26:25;;;;;;;67.97;41.07;;;-3.80;99.90;-5.10;101527;;;;579258;243;24063;-74
2022/12/17 21:28:57;;;;;;;68.73;41.03;;;-3.80;99.90;-5.10;101535;;;;567156;249;24110;-72
2022/12/17 21:31:44;;;;;;;71.77;41.63;;;-3.90;99.90;-5.10;101530;;;;581069;243;24129;-75
2022/12/17 21:34:11;;;;;;;75.97;42.27;;;-3.90;99.90;-5.10;101534;;;;581821;243;24057;-72
2022/12/17 21:36:49;;;;;;;69.70;41.23;;;-3.90;99.90;-5.20;101542;;;;579462;248;24113;-76
2022/12/17 21:39:16;;;;;;;67.40;39.27;;;-4.00;99.90;-5.30;101541;;;;579715;243;24026;-73
2022/12/17 21:44:29;;;;;;;66.80;39.50;;;-4.10;99.90;-5.30;101537;;;;579925;247;24099;-75
2022/12/17 21:46:58;;;;;;;68.90;39.73;;;-4.10;99.90;-5.40;101538;;;;578288;248;24126;-77
2022/12/17 21:49:25;;;;;;;68.60;41.13;;;-4.20;99.90;-5.40;101544;;;;580662;243;24100;-79
2022/12/17 21:51:54;;;;;;;80.43;42.50;;;-4.20;99.90;-5.50;101533;;;;581635;243;24126;-78
2022/12/17 21:54:31;;;;;;;72.53;41.40;;;-4.20;99.90;-5.50;101530;;;;580117;243;24116;-75
2022/12/17 21:57:00;;;;;;;81.37;43.93;;;-4.30;99.90;-5.60;101533;;;;570677;248;24129;-74
2022/12/17 21:59:24;;;;;;;77.30;43.93;;;-4.30;99.90;-5.50;101528;;;;566305;249;24090;-72
2022/12/17 22:01:56;;;;;;;77.57;45.37;;;-4.30;99.90;-5.60;101535;;;;569740;248;24189;-73
2022/12/17 22:04:20;;;;;;;75.83;45.20;;;-4.30;99.90;-5.60;101536;;;;579962;243;24057;-72
2022/12/17 22:06:51;;;;;;;78.57;44.93;;;-4.30;99.90;-5.60;101537;;;;580656;243;24086;-72
2022/12/17 22:09:16;;;;;;;73.90;42.80;;;-4.40;99.90;-5.60;101538;;;;569766;248;25161;-72
2022/12/17 22:11:44;;;;;;;75.33;43.50;;;-4.40;99.90;-5.70;101533;;;;569985;248;24110;-75
2022/12/17 22:14:17;;;;;;;67.30;42.30;;;-4.40;99.90;-5.70;101553;;;;570888;247;24119;-72
2022/12/17 22:16:45;;;;;;;66.43;40.43;;;-4.40;99.90;-5.70;101545;;;;581189;243;24068;-72
2022/12/17 22:19:14;;;;;;;69.27;41.50;;;-4.50;99.90;-5.70;101547;;;;581131;243;24094;-73
2022/12/17 22:21:45;;;;;;;69.53;40.20;;;-4.50;99.90;-5.70;101564;;;;579440;248;24176;-73
2022/12/17 22:24:12;;;;;;;64.03;40.97;;;-4.50;99.90;-5.70;101556;;;;568824;248;24181;-73
2022/12/17 22:26:40;;;;;;;67.07;41.00;;;-4.50;99.90;-5.70;101562;;;;580083;243;24053;-77
2022/12/17 22:29:09;;;;;;;70.33;41.17;;;-4.50;99.90;-5.70;101563;;;;581030;243;24091;-74
2022/12/17 22:34:23;;;;;;;75.97;42.38;;;-4.50;99.90;-5.80;101567;;;;575938;243;35196;-75
2022/12/17 22:37:00;;;;;;;76.40;42.23;;;-4.60;99.90;-5.80;101569;;;;580956;243;24093;-72
2022/12/17 22:39:27;;;;;;;74.57;45.40;;;-4.60;99.90;-5.90;101569;;;;570758;248;25149;-73
2022/12/17 22:44:38;;;;;;;79.23;47.53;;;-4.60;99.90;-5.90;101574;;;;568732;249;24101;-72
2022/12/17 22:47:06;;;;;;;83.73;47.00;;;-4.60;99.90;-5.90;101573;;;;569890;248;24125;-72
2022/12/17 22:49:34;;;;;;;79.37;47.47;;;-4.70;99.90;-5.90;101576;;;;569691;248;24136;-72
2022/12/17 22:52:02;;;;;;;75.37;44.10;;;-4.70;99.90;-5.90;101582;;;;569756;248;24081;-72
2022/12/17 22:54:35;;;;;;;75.23;44.27;;;-4.70;99.90;-6.00;101577;;;;569198;248;24152;-71
2022/12/17 22:57:00;;;;;;;75.33;44.53;;;-4.70;99.90;-6.00;101577;;;;569650;248;24095;-72
2022/12/17 22:59:30;;;;;;;72.33;44.83;;;-4.70;99.90;-6.00;101585;;;;569963;248;24108;-73
2022/12/17 23:01:59;;;;;;;72.27;44.07;;;-4.70;99.90;-6.00;101584;;;;570611;248;25135;-72
2022/12/17 23:04:29;;;;;;;67.50;42.03;;;-4.70;99.90;-6.00;101589;;;;570790;248;24100;-74
2022/12/17 23:06:57;;;;;;;71.07;42.00;;;-4.70;99.90;-6.00;101586;;;;581452;243;24104;-75
2022/12/17 23:09:25;;;;;;;65.40;41.33;;;-4.80;99.90;-6.00;101598;;;;580753;243;24091;-73
2022/12/17 23:11:54;;;;;;;67.73;41.40;;;-4.80;99.90;-6.00;101594;;;;569859;248;24081;-72
2022/12/17 23:14:27;;;;;;;68.27;41.43;;;-4.70;99.90;-6.10;101598;;;;569488;248;24110;-72
2022/12/17 23:16:52;;;;;;;65.53;41.30;;;-4.80;99.90;-6.10;101606;;;;570375;248;24070;-72
2022/12/17 23:19:19;;;;;;;68.67;43.10;;;-4.80;99.90;-6.10;101596;;;;570409;248;24144;-71
2022/12/17 23:21:47;;;;;;;65.03;42.77;;;-4.80;99.90;-6.10;101603;;;;569341;248;24151;-71
2022/12/17 23:24:15;;;;;;;70.83;44.17;;;-4.90;99.90;-6.10;101602;;;;569667;248;24073;-73
2022/12/17 23:26:43;;;;;;;75.23;42.37;;;-4.90;99.90;-6.10;101597;;;;570560;247;24103;-72
2022/12/17 23:29:11;;;;;;;71.23;42.80;;;-4.90;99.90;-6.10;101601;;;;570358;248;24103;-73
2022/12/17 23:31:40;;;;;;;67.70;42.67;;;-4.90;99.90;-6.20;101616;;;;570511;248;24092;-72
2022/12/17 23:34:08;;;;;;;64.17;40.20;;;-4.90;99.90;-6.20;101613;;;;570540;248;24076;-73
2022/12/17 23:36:36;;;;;;;64.03;39.97;;;-4.90;99.90;-6.20;101624;;;;570087;248;24084;-73
2022/12/17 23:39:04;;;;;;;62.43;38.73;;;-5.00;99.90;-6.30;101620;;;;570166;248;24089;-73
2022/12/17 23:41:32;;;;;;;66.43;38.93;;;-5.00;99.90;-6.30;101616;;;;579309;248;24091;-72
2022/12/17 23:44:00;;;;;;;61.90;37.80;;;-5.00;99.90;-6.30;101609;;;;579222;248;24092;-72
2022/12/17 23:46:27;;;;;;;58.43;36.27;;;-5.00;99.90;-6.30;101618;;;;580176;243;24121;-71
2022/12/17 23:48:55;;;;;;;56.57;34.93;;;-5.10;99.90;-6.40;101621;;;;566476;249;24124;-73
2022/12/17 23:51:24;;;;;;;57.57;36.27;;;-5.20;99.90;-6.50;101624;;;;580857;243;24072;-72
2022/12/17 23:53:56;;;;;;;62.63;36.40;;;-5.20;99.90;-6.50;101618;;;;589837;243;24074;-73
2022/12/17 23:56:21;;;;;;;59.23;36.43;;;-5.20;99.90;-6.50;101624;;;;568370;249;24100;-74
2022/12/17 23:58:52;;;;;;;61.07;36.83;;;-5.20;99.90;-6.50;101631;;;;580648;243;24071;-74
